createdAt,value
2022-08-14T00:01:32.568Z,69.70
2022-08-14T00:03:59.575Z,69.90
2022-08-14T00:06:29.250Z,71.30
2022-08-14T00:08:59.011Z,70.60
2022-08-14T00:11:31.186Z,71.10
2022-08-14T00:14:01.528Z,71.50
2022-08-14T00:16:40.975Z,72.10
2022-08-14T00:19:19.258Z,72.60
2022-08-14T00:21:51.088Z,73.00
2022-08-14T00:24:23.283Z,73.20
2022-08-14T00:27:02.290Z,73.30
2022-08-14T00:29:33.104Z,73.60
2022-08-14T00:32:52.447Z,73.90
2022-08-14T00:34:56.547Z,74.10
2022-08-14T00:37:23.502Z,74.50
2022-08-14T00:39:51.096Z,75.80
2022-08-14T00:42:55.158Z,74.70
2022-08-14T00:45:12.192Z,75.10
2022-08-14T00:47:45.498Z,75.40
2022-08-14T00:50:17.890Z,75.50
2022-08-14T00:52:50.833Z,75.40
2022-08-14T00:55:20.984Z,75.30
2022-08-14T00:58:09.062Z,75.40
2022-08-14T01:00:37.374Z,75.60
2022-08-14T01:03:19.018Z,75.80
2022-08-14T01:05:52.000Z,76.20
2022-08-14T01:08:51.626Z,76.60
2022-08-14T01:11:19.211Z,76.80
2022-08-14T01:13:55.730Z,77.30
2022-08-14T01:16:30.852Z,77.80
2022-08-14T01:19:17.341Z,78.30
2022-08-14T01:21:53.576Z,78.30
2022-08-14T01:24:22.928Z,78.60
2022-08-14T01:27:00.104Z,78.90
2022-08-14T01:29:58.300Z,80.20
2022-08-14T01:32:22.543Z,79.00
2022-08-14T01:35:21.145Z,79.10
2022-08-14T01:37:56.386Z,79.00
2022-08-14T01:40:36.985Z,78.00
2022-08-14T01:43:14.223Z,77.20
2022-08-14T01:45:41.202Z,77.20
2022-08-14T01:48:13.173Z,77.40
2022-08-14T01:50:42.113Z,77.50
2022-08-14T01:53:10.555Z,77.80
2022-08-14T01:55:40.401Z,78.30
2022-08-14T01:58:18.942Z,78.70
2022-08-14T02:00:53.949Z,79.10
2022-08-14T02:03:21.197Z,79.30
2022-08-14T02:05:49.554Z,79.60
2022-08-14T02:08:16.980Z,80.20
2022-08-14T02:11:09.574Z,80.50
2022-08-14T02:13:37.212Z,80.70
2022-08-14T02:16:21.957Z,81.00
2022-08-14T02:18:49.907Z,81.30
2022-08-14T02:21:19.255Z,81.80
2022-08-14T02:23:48.059Z,81.90
2022-08-14T02:26:29.279Z,81.60
2022-08-14T02:29:04.625Z,82.00
2022-08-14T02:31:43.429Z,82.40
2022-08-14T02:34:22.541Z,82.70
2022-08-14T02:37:03.385Z,83.10
2022-08-14T02:39:34.561Z,83.60
2022-08-14T02:42:04.193Z,83.80
2022-08-14T02:44:31.497Z,83.40
2022-08-14T02:47:14.966Z,84.40
2022-08-14T02:49:42.834Z,85.00
2022-08-14T02:52:26.857Z,85.70
2022-08-14T02:54:57.496Z,85.90
2022-08-14T02:57:40.078Z,86.00
2022-08-14T03:00:09.818Z,86.30
2022-08-14T03:02:56.085Z,86.50
2022-08-14T03:05:24.412Z,86.80
2022-08-14T03:07:52.867Z,87.00
2022-08-14T03:10:25.850Z,87.10
2022-08-14T03:12:55.534Z,86.50
2022-08-14T03:15:22.456Z,85.70
2022-08-14T03:17:56.831Z,85.30
2022-08-14T03:20:30.187Z,85.40
2022-08-14T03:23:02.913Z,85.30
2022-08-14T03:25:33.312Z,85.40
2022-08-14T03:28:03.985Z,85.70
2022-08-14T03:30:39.856Z,86.10
2022-08-14T03:33:12.568Z,86.60
2022-08-14T03:35:59.938Z,87.00
2022-08-14T03:39:13.080Z,87.40
2022-08-14T03:41:18.431Z,87.80
2022-08-14T03:43:57.838Z,88.10
2022-08-14T03:46:52.788Z,87.60
2022-08-14T03:49:29.394Z,88.60
2022-08-14T03:51:58.313Z,89.20
2022-08-14T03:54:28.357Z,89.70
2022-08-14T03:57:00.564Z,90.00
2022-08-14T03:59:31.857Z,90.30
2022-08-14T04:02:02.225Z,90.40
2022-08-14T04:04:33.647Z,90.30
2022-08-14T04:07:01.076Z,90.50
2022-08-14T04:09:29.303Z,90.80
2022-08-14T04:11:58.227Z,91.10
2022-08-14T04:14:26.610Z,91.50
2022-08-14T04:16:53.480Z,91.60
2022-08-14T04:19:23.725Z,91.80
2022-08-14T04:22:03.224Z,91.90
2022-08-14T04:24:37.843Z,92.00
2022-08-14T04:27:09.749Z,92.10
2022-08-14T04:29:42.687Z,92.10
2022-08-14T04:33:02.651Z,91.60
2022-08-14T04:34:57.764Z,92.00
2022-08-14T04:37:45.295Z,92.00
2022-08-14T04:40:32.589Z,92.10
2022-08-14T04:43:21.044Z,92.30
2022-08-14T04:45:50.979Z,92.60
2022-08-14T04:48:39.027Z,92.70
2022-08-14T04:51:13.424Z,93.00
2022-08-14T04:53:43.743Z,93.20
2022-08-14T04:56:31.492Z,93.50
2022-08-14T04:59:10.301Z,93.60
2022-08-14T05:01:41.789Z,93.40
2022-08-14T05:04:16.415Z,93.40
2022-08-14T05:06:49.206Z,93.30
2022-08-14T05:09:17.127Z,93.30
2022-08-14T05:11:44.850Z,93.20
2022-08-14T05:14:33.724Z,93.20
2022-08-14T05:17:01.889Z,93.30
2022-08-14T05:19:32.510Z,93.40
2022-08-14T05:22:16.764Z,93.50
2022-08-14T05:24:50.559Z,93.70
2022-08-14T05:27:22.218Z,93.90
2022-08-14T05:29:50.705Z,94.10
2022-08-14T05:32:17.820Z,94.60
2022-08-14T05:34:45.729Z,94.20
2022-08-14T05:37:13.247Z,94.20
2022-08-14T05:39:42.863Z,94.10
2022-08-14T05:42:21.395Z,94.00
2022-08-14T05:44:49.432Z,93.90
2022-08-14T05:47:20.955Z,94.00
2022-08-14T05:49:48.271Z,94.00
2022-08-14T05:52:17.979Z,94.00
2022-08-14T05:54:45.110Z,94.10
2022-08-14T05:57:13.205Z,94.20
2022-08-14T05:59:41.905Z,94.40
2022-08-14T06:02:09.894Z,94.50
2022-08-14T06:04:37.464Z,94.50
2022-08-14T06:07:04.456Z,94.70
2022-08-14T06:09:35.650Z,94.80
2022-08-14T06:12:03.327Z,95.00
2022-08-14T06:14:31.226Z,95.00
2022-08-14T06:16:58.787Z,94.90
2022-08-14T06:19:26.485Z,95.00
2022-08-14T06:21:59.063Z,95.30
2022-08-14T06:24:27.386Z,95.30
2022-08-14T06:27:04.649Z,95.10
2022-08-14T06:29:34.894Z,95.10
2022-08-14T06:32:38.282Z,94.90
2022-08-14T06:35:11.452Z,94.80
2022-08-14T06:37:46.792Z,94.70
2022-08-14T06:40:26.885Z,94.50
2022-08-14T06:43:00.445Z,94.50
2022-08-14T06:45:38.706Z,94.30
2022-08-14T06:48:14.554Z,94.20
2022-08-14T06:50:45.503Z,94.20
2022-08-14T06:53:14.660Z,94.10
2022-08-14T06:55:53.296Z,94.00
2022-08-14T06:58:29.397Z,94.20
2022-08-14T07:01:20.359Z,94.20
2022-08-14T07:04:18.899Z,94.10
2022-08-14T07:06:50.520Z,94.10
2022-08-14T07:09:22.653Z,93.90
2022-08-14T07:11:51.632Z,93.40
2022-08-14T07:14:18.568Z,93.10
2022-08-14T07:16:45.333Z,93.00
2022-08-14T07:19:12.300Z,92.90
2022-08-14T07:21:39.677Z,92.60
2022-08-14T07:24:09.759Z,92.40
2022-08-14T07:26:53.556Z,92.20
2022-08-14T07:29:26.054Z,92.00
2022-08-14T07:31:53.929Z,91.90
2022-08-14T07:34:35.957Z,91.70
2022-08-14T07:37:04.650Z,91.50
2022-08-14T07:39:34.505Z,91.50
2022-08-14T07:42:02.281Z,91.30
2022-08-14T07:44:35.914Z,90.80
2022-08-14T07:47:12.911Z,90.50
2022-08-14T07:49:41.539Z,90.40
2022-08-14T07:52:10.613Z,90.40
2022-08-14T07:54:41.393Z,90.20
2022-08-14T07:57:12.086Z,90.10
2022-08-14T07:59:43.780Z,90.10
2022-08-14T08:02:18.628Z,90.00
2022-08-14T08:04:49.513Z,89.90
2022-08-14T08:07:16.968Z,90.00
2022-08-14T08:09:51.015Z,89.80
2022-08-14T08:12:24.931Z,89.50
2022-08-14T08:15:03.040Z,89.20
2022-08-14T08:17:38.990Z,89.20
2022-08-14T08:20:16.140Z,88.90
2022-08-14T08:22:56.464Z,88.30
2022-08-14T08:25:28.963Z,88.00
2022-08-14T08:28:00.557Z,87.80
2022-08-14T08:30:49.515Z,86.90
2022-08-14T08:33:18.576Z,86.80
2022-08-14T08:35:50.843Z,86.70
2022-08-14T08:39:14.721Z,86.10
2022-08-14T08:41:11.229Z,85.50
2022-08-14T08:43:39.313Z,84.50
2022-08-14T08:46:23.514Z,84.10
2022-08-14T08:51:42.810Z,83.70
2022-08-14T08:54:18.668Z,82.80
2022-08-14T08:56:48.368Z,82.60
2022-08-14T08:59:27.352Z,82.60
2022-08-14T09:02:05.064Z,82.50
2022-08-14T09:04:53.490Z,82.40
2022-08-14T09:07:27.326Z,81.20
2022-08-14T09:09:59.379Z,80.80
2022-08-14T09:12:32.370Z,79.90
2022-08-14T09:15:11.764Z,79.80
2022-08-14T09:17:42.347Z,79.00
2022-08-14T09:20:14.020Z,78.90
2022-08-14T09:22:55.053Z,78.30
2022-08-14T09:25:59.633Z,77.20
2022-08-14T09:28:09.370Z,77.10
2022-08-14T09:30:40.188Z,77.10
2022-08-14T09:33:35.529Z,75.70
2022-08-14T09:36:46.614Z,75.40
2022-08-14T09:39:25.609Z,74.80
2022-08-14T09:42:21.369Z,74.80
2022-08-14T09:45:16.857Z,74.30
2022-08-14T09:47:52.174Z,73.80
2022-08-14T09:50:25.780Z,73.40
2022-08-14T09:52:58.873Z,73.60
2022-08-14T09:55:28.194Z,73.00
2022-08-14T09:58:19.872Z,73.50
2022-08-14T10:01:00.508Z,73.30
2022-08-14T10:03:33.875Z,74.40
2022-08-14T10:06:09.926Z,72.10
2022-08-14T10:08:48.917Z,71.40
2022-08-14T10:11:23.481Z,71.10
2022-08-14T10:13:54.343Z,71.60
2022-08-14T10:16:33.678Z,71.30
2022-08-14T10:19:10.929Z,70.70
2022-08-14T10:23:12.018Z,70.40
2022-08-14T10:24:37.300Z,69.70
2022-08-14T10:27:16.266Z,67.50
2022-08-14T10:29:54.431Z,66.90
2022-08-14T10:32:29.137Z,66.80
2022-08-14T10:35:10.917Z,66.10
2022-08-14T10:37:49.437Z,65.90
2022-08-14T10:40:37.506Z,66.00
2022-08-14T10:43:25.294Z,65.00
2022-08-14T10:46:03.961Z,63.80
2022-08-14T10:49:04.230Z,63.60
2022-08-14T10:51:36.144Z,62.80
2022-08-14T10:54:26.267Z,61.70
2022-08-14T10:56:55.816Z,61.20
2022-08-14T10:59:31.261Z,60.90
2022-08-14T11:02:03.129Z,61.20
2022-08-14T11:04:30.274Z,61.20
2022-08-14T11:06:58.434Z,61.10
2022-08-14T11:09:26.327Z,60.00
2022-08-14T11:12:36.692Z,58.20
2022-08-14T11:15:03.206Z,58.10
2022-08-14T11:17:33.970Z,58.10
2022-08-14T11:20:02.807Z,57.70
2022-08-14T11:22:56.209Z,56.90
2022-08-14T11:25:20.394Z,56.80
2022-08-14T11:27:49.449Z,56.20
2022-08-14T11:30:51.406Z,55.40
2022-08-14T11:33:07.555Z,55.00
2022-08-14T11:35:43.975Z,54.80
2022-08-14T11:38:14.756Z,54.00
2022-08-14T11:40:47.197Z,53.60
2022-08-14T11:43:15.345Z,53.30
2022-08-14T11:45:48.599Z,53.50
2022-08-14T11:48:59.676Z,52.80
2022-08-14T11:51:14.472Z,52.30
2022-08-14T11:53:50.087Z,52.10
2022-08-14T11:56:17.664Z,51.70
2022-08-14T11:58:51.167Z,51.10
2022-08-14T12:01:28.440Z,50.50
2022-08-14T12:03:58.931Z,50.20
2022-08-14T12:06:39.232Z,50.10
2022-08-14T12:09:08.674Z,50.00
2022-08-14T12:11:43.754Z,51.50
2022-08-14T12:14:13.187Z,50.10
2022-08-14T12:17:09.526Z,50.40
2022-08-14T12:19:56.696Z,49.40
2022-08-14T12:22:34.019Z,49.80
2022-08-14T12:25:01.741Z,49.50
2022-08-14T12:27:37.869Z,47.90
2022-08-14T12:30:09.791Z,47.40
2022-08-14T12:32:47.274Z,46.80
2022-08-14T12:35:14.584Z,46.00
2022-08-14T12:37:49.060Z,45.90
2022-08-14T12:40:19.654Z,45.50
2022-08-14T12:42:53.843Z,45.30
2022-08-14T12:45:32.771Z,46.10
2022-08-14T12:48:21.337Z,45.20
2022-08-14T12:50:52.197Z,45.60
2022-08-14T12:53:21.093Z,43.20
2022-08-14T12:56:22.646Z,42.30
2022-08-14T12:58:54.909Z,42.00
2022-08-14T13:01:25.447Z,42.20
2022-08-14T13:04:12.587Z,42.20
2022-08-14T13:06:41.721Z,41.70
2022-08-14T13:09:14.067Z,41.30
2022-08-14T13:11:59.165Z,40.60
2022-08-14T13:14:38.730Z,40.30
2022-08-14T13:17:07.163Z,40.00
2022-08-14T13:19:35.789Z,39.80
2022-08-14T13:22:09.507Z,38.40
2022-08-14T13:24:39.478Z,37.90
2022-08-14T13:27:10.042Z,37.60
2022-08-14T13:29:46.908Z,37.00
2022-08-14T13:32:15.135Z,36.40
2022-08-14T13:34:45.369Z,36.50
2022-08-14T13:37:14.703Z,36.80
2022-08-14T13:39:56.223Z,36.70
2022-08-14T13:42:27.783Z,36.60
2022-08-14T13:45:00.338Z,36.60
2022-08-14T13:47:33.096Z,36.10
2022-08-14T13:50:04.771Z,36.50
2022-08-14T13:52:51.652Z,35.90
2022-08-14T13:55:25.882Z,35.50
2022-08-14T13:58:04.315Z,34.70
2022-08-14T14:00:53.041Z,34.80
2022-08-14T14:03:24.252Z,34.90
2022-08-14T14:05:54.325Z,34.80
2022-08-14T14:08:45.797Z,34.80
2022-08-14T14:11:13.190Z,34.40
2022-08-14T14:13:45.138Z,34.30
2022-08-14T14:16:15.535Z,33.90
2022-08-14T14:18:56.389Z,33.00
2022-08-14T14:21:28.994Z,32.90
2022-08-14T14:23:57.113Z,32.80
2022-08-14T14:26:24.886Z,32.90
2022-08-14T14:28:56.699Z,33.10
2022-08-14T14:31:30.035Z,32.50
2022-08-14T14:34:07.732Z,32.60
2022-08-14T14:36:50.151Z,31.90
2022-08-14T14:39:25.457Z,31.80
2022-08-14T14:41:56.754Z,31.80
2022-08-14T14:44:26.883Z,31.90
2022-08-14T14:46:53.798Z,31.90
2022-08-14T14:49:22.236Z,32.10
2022-08-14T14:51:58.947Z,31.60
2022-08-14T14:54:31.232Z,31.90
2022-08-14T14:57:09.260Z,31.90
2022-08-14T14:59:37.447Z,32.00
2022-08-14T15:02:09.306Z,32.10
2022-08-14T15:04:38.390Z,31.90
2022-08-14T15:07:07.070Z,31.60
2022-08-14T15:09:34.668Z,31.30
2022-08-14T15:12:05.535Z,31.10
2022-08-14T15:14:56.122Z,30.70
2022-08-14T15:17:40.803Z,30.80
2022-08-14T15:20:11.479Z,30.70
2022-08-14T15:22:50.935Z,30.80
2022-08-14T15:25:18.917Z,30.60
2022-08-14T15:27:50.115Z,30.40
2022-08-14T15:30:23.681Z,30.10
2022-08-14T15:32:53.079Z,29.90
2022-08-14T15:35:22.382Z,29.70
2022-08-14T15:37:55.478Z,29.10
2022-08-14T15:40:23.130Z,28.80
2022-08-14T15:42:50.113Z,28.90
2022-08-14T15:45:17.222Z,28.90
2022-08-14T15:47:44.368Z,28.90
2022-08-14T15:50:12.752Z,28.70
2022-08-14T15:52:42.855Z,28.50
2022-08-14T15:55:14.548Z,28.70
2022-08-14T15:58:02.004Z,28.80
2022-08-14T16:00:54.159Z,28.60
2022-08-14T16:03:27.990Z,28.30
2022-08-14T16:06:15.433Z,28.10
2022-08-14T16:08:58.522Z,28.40
2022-08-14T16:11:28.672Z,28.40
2022-08-14T16:13:59.487Z,28.60
2022-08-14T16:16:34.571Z,28.80
2022-08-14T16:19:19.343Z,29.10
2022-08-14T16:21:58.452Z,28.90
2022-08-14T16:25:02.127Z,29.10
2022-08-14T16:27:33.648Z,28.90
2022-08-14T16:30:06.380Z,28.90
2022-08-14T16:32:55.113Z,29.20
2022-08-14T16:35:42.593Z,29.40
2022-08-14T16:38:44.850Z,29.50
2022-08-14T16:41:23.078Z,29.70
2022-08-14T16:44:31.602Z,29.70
2022-08-14T16:47:05.650Z,29.70
2022-08-14T16:50:02.508Z,29.90
2022-08-14T16:52:25.794Z,29.80
2022-08-14T16:55:09.437Z,29.90
2022-08-14T16:57:58.620Z,29.70
2022-08-14T17:00:43.654Z,29.60
2022-08-14T17:03:12.279Z,29.60
2022-08-14T17:05:43.514Z,29.80
2022-08-14T17:08:32.563Z,29.60
2022-08-14T17:10:58.167Z,29.70
2022-08-14T17:13:58.595Z,29.70
2022-08-14T17:16:25.157Z,29.70
2022-08-14T17:19:00.549Z,29.70
2022-08-14T17:21:31.365Z,29.60
2022-08-14T17:24:51.643Z,29.60
2022-08-14T17:26:55.103Z,29.70
2022-08-14T17:29:22.449Z,29.80
2022-08-14T17:32:06.771Z,29.90
2022-08-14T17:34:53.819Z,30.30
2022-08-14T17:37:45.236Z,30.50
2022-08-14T17:40:16.524Z,30.80
2022-08-14T17:42:51.393Z,31.20
2022-08-14T17:45:43.202Z,31.30
2022-08-14T17:49:14.970Z,31.80
2022-08-14T17:51:17.062Z,32.10
2022-08-14T17:54:01.471Z,32.50
2022-08-14T17:56:31.808Z,32.30
2022-08-14T17:59:06.192Z,32.70
2022-08-14T18:01:46.539Z,33.10
2022-08-14T18:04:28.781Z,33.10
2022-08-14T18:07:16.050Z,33.10
2022-08-14T18:09:57.306Z,33.30
2022-08-14T18:12:36.830Z,33.40
2022-08-14T18:15:15.957Z,33.90
2022-08-14T18:17:52.907Z,34.00
2022-08-14T18:21:42.450Z,34.00
2022-08-14T18:23:13.502Z,34.30
2022-08-14T18:25:52.913Z,34.40
2022-08-14T18:28:51.061Z,34.00
2022-08-14T18:31:44.114Z,34.10
2022-08-14T18:34:31.230Z,34.30
2022-08-14T18:37:14.349Z,34.80
2022-08-14T18:40:02.540Z,34.80
2022-08-14T18:42:34.889Z,35.00
2022-08-14T18:45:12.338Z,35.30
2022-08-14T18:48:05.101Z,35.40
2022-08-14T18:50:32.143Z,35.40
2022-08-14T18:53:08.968Z,35.80
2022-08-14T18:55:37.609Z,35.80
2022-08-14T18:58:31.473Z,35.90
2022-08-14T19:01:04.542Z,36.00
2022-08-14T19:03:37.161Z,36.40
2022-08-14T19:06:10.868Z,36.60
2022-08-14T19:08:49.692Z,36.90
2022-08-14T19:11:32.533Z,36.90
2022-08-14T19:14:04.710Z,37.10
2022-08-14T19:16:36.938Z,37.10
2022-08-14T19:19:08.868Z,37.10
2022-08-14T19:21:40.807Z,37.20
2022-08-14T19:24:27.914Z,37.30
2022-08-14T19:27:22.938Z,37.60
2022-08-14T19:29:51.860Z,37.50
2022-08-14T19:32:40.351Z,37.40
2022-08-14T19:35:49.036Z,37.40
2022-08-14T19:38:47.888Z,37.50
2022-08-14T19:41:16.137Z,37.30
2022-08-14T19:43:55.838Z,37.70
2022-08-14T19:46:38.758Z,37.90
2022-08-14T19:49:21.586Z,37.90
2022-08-14T19:52:03.731Z,38.00
2022-08-14T19:54:37.009Z,37.90
2022-08-14T19:57:04.472Z,37.80
2022-08-14T19:59:36.531Z,37.80
2022-08-14T20:02:05.864Z,38.00
2022-08-14T20:04:46.415Z,37.80
2022-08-14T20:08:00.523Z,38.10
2022-08-14T20:11:07.094Z,38.20
2022-08-14T20:13:32.142Z,38.30
2022-08-14T20:16:12.296Z,38.40
2022-08-14T20:18:51.618Z,38.40
2022-08-14T20:21:21.502Z,38.40
2022-08-14T20:23:49.493Z,38.50
2022-08-14T20:26:31.684Z,40.00
2022-08-14T20:29:04.625Z,38.80
2022-08-14T20:31:37.348Z,39.10
2022-08-14T20:34:18.702Z,39.30
2022-08-14T20:37:01.871Z,39.50
2022-08-14T20:39:34.146Z,39.70
2022-08-14T20:42:30.380Z,40.90
2022-08-14T20:45:24.203Z,39.80
2022-08-14T20:48:07.221Z,40.10
2022-08-14T20:50:36.666Z,40.00
2022-08-14T20:53:27.468Z,40.20
2022-08-14T20:56:00.514Z,40.40
2022-08-14T20:58:43.409Z,40.40
2022-08-14T21:01:18.529Z,40.70
2022-08-14T21:03:57.924Z,40.90
2022-08-14T21:06:30.942Z,40.80
2022-08-14T21:09:18.923Z,40.90
2022-08-14T21:12:03.116Z,41.10
2022-08-14T21:14:30.135Z,41.10
2022-08-14T21:16:58.975Z,41.30
2022-08-14T21:19:26.847Z,41.30
2022-08-14T21:21:55.666Z,41.30
2022-08-14T21:24:39.750Z,41.20
2022-08-14T21:27:20.004Z,41.30
2022-08-14T21:29:56.014Z,41.20
2022-08-14T21:32:35.007Z,41.30
2022-08-14T21:35:09.875Z,41.40
2022-08-14T21:37:43.678Z,41.60
2022-08-14T21:40:33.239Z,41.60
2022-08-14T21:43:00.190Z,41.70
2022-08-14T21:45:27.077Z,41.90
2022-08-14T21:47:56.342Z,42.00
2022-08-14T21:50:39.844Z,41.90
2022-08-14T21:53:10.931Z,42.00
2022-08-14T21:55:37.961Z,42.00
2022-08-14T21:58:52.713Z,41.80
2022-08-14T22:00:54.002Z,41.80
2022-08-14T22:03:24.177Z,41.80
2022-08-14T22:05:53.196Z,41.90
2022-08-14T22:08:22.417Z,42.00
2022-08-14T22:10:54.612Z,42.20
2022-08-14T22:13:26.428Z,42.20
2022-08-14T22:15:59.609Z,42.20
2022-08-14T22:18:29.749Z,42.30
2022-08-14T22:20:57.387Z,42.40
2022-08-14T22:23:25.707Z,42.50
2022-08-14T22:25:53.746Z,42.60
2022-08-14T22:28:25.399Z,42.70
2022-08-14T22:30:54.942Z,42.80
2022-08-14T22:33:26.649Z,42.60
2022-08-14T22:35:58.891Z,42.80
2022-08-14T22:38:36.027Z,42.80
2022-08-14T22:41:25.371Z,42.90
2022-08-14T22:44:06.553Z,43.00
2022-08-14T22:46:33.641Z,42.90
2022-08-14T22:49:16.134Z,43.10
2022-08-14T22:51:48.738Z,43.10
2022-08-14T22:54:52.258Z,43.20
2022-08-14T22:57:05.105Z,43.10
2022-08-14T22:59:38.903Z,43.30
2022-08-14T23:02:12.671Z,43.30
2022-08-14T23:04:53.803Z,43.40
2022-08-14T23:07:25.910Z,43.50
2022-08-14T23:10:32.492Z,43.70
2022-08-14T23:13:00.256Z,43.60
2022-08-14T23:15:29.836Z,43.70
2022-08-14T23:17:57.510Z,43.90
2022-08-14T23:20:29.485Z,43.90
2022-08-14T23:22:57.798Z,43.90
2022-08-14T23:25:56.812Z,44.10
2022-08-14T23:28:33.431Z,44.00
2022-08-14T23:31:10.916Z,44.20
2022-08-14T23:33:45.611Z,44.40
2022-08-14T23:36:31.944Z,44.40
2022-08-14T23:39:00.220Z,46.00
2022-08-14T23:41:27.113Z,44.70
2022-08-14T23:44:15.313Z,45.00
2022-08-14T23:46:44.203Z,45.10
2022-08-14T23:49:12.402Z,45.30
2022-08-14T23:51:39.515Z,45.40
2022-08-14T23:54:48.392Z,45.70
2022-08-14T23:57:00.155Z,47.10
2022-08-14T23:59:30.263Z,46.10
